Time,TemperatureF,DewpointF,PressureIn,WindDirection,WindDirectionDegrees,WindSpeedMPH,WindSpeedGustMPH,Humidity,HourlyPrecipIn,Conditions,Clouds,dailyrainin,SolarRadiationWatts/m^2,SoftwareType,DateUTC
2017-12-13 00:02:00,20.1,15.3,30.54,SW,224,0.0,1.0,81,0.00,,,0.00,0.0,meteohub,2017-12-13 08:02:00,
2017-12-13 00:07:00,19.8,14.9,30.53,SW,225,0.0,1.0,81,0.00,,,0.00,0.0,meteohub,2017-12-13 08:07:00,
2017-12-13 00:12:00,19.4,14.5,30.53,SW,225,0.0,1.0,81,0.00,,,0.00,0.0,meteohub,2017-12-13 08:12:00,
2017-12-13 00:17:00,19.0,14.2,30.53,SW,224,0.0,3.0,81,0.00,,,0.00,0.0,meteohub,2017-12-13 08:17:00,
2017-12-13 00:22:00,18.7,13.8,30.53,SW,224,0.0,3.0,81,0.00,,,0.00,0.0,meteohub,2017-12-13 08:22:00,
2017-12-13 00:27:00,18.7,14.2,30.53,SW,225,0.0,3.0,82,0.00,,,0.00,0.0,meteohub,2017-12-13 08:27:00,
2017-12-13 00:32:00,18.9,14.5,30.53,SW,225,0.0,2.0,83,0.00,,,0.00,0.0,meteohub,2017-12-13 08:32:00,
2017-12-13 00:37:00,18.9,14.4,30.53,SW,224,0.0,0.0,82,0.00,,,0.00,0.0,meteohub,2017-12-13 08:37:00,
2017-12-13 00:42:00,18.9,14.4,30.53,SW,225,0.0,0.0,82,0.00,,,0.00,0.0,meteohub,2017-12-13 08:42:00,
2017-12-13 00:47:00,18.5,14.0,30.52,SW,224,0.0,0.0,82,0.00,,,0.00,0.0,meteohub,2017-12-13 08:47:00,
2017-12-13 00:52:00,18.3,13.8,30.52,SW,224,1.0,1.0,82,0.00,,,0.00,0.0,meteohub,2017-12-13 08:52:00,
2017-12-13 00:57:00,18.0,13.5,30.52,SW,224,0.0,2.0,82,0.00,,,0.00,0.0,meteohub,2017-12-13 08:57:00,
2017-12-13 01:02:00,18.3,14.4,30.51,SW,224,1.0,2.0,84,0.00,,,0.00,0.0,meteohub,2017-12-13 09:02:00,
2017-12-13 01:07:00,18.5,14.2,30.51,SW,224,0.0,2.0,83,0.00,,,0.00,0.0,meteohub,2017-12-13 09:07:00,
2017-12-13 01:12:00,18.7,14.2,30.52,SW,224,2.0,2.0,82,0.00,,,0.00,0.0,meteohub,2017-12-13 09:12:00,
2017-12-13 01:17:00,18.1,13.6,30.52,SW,225,1.0,3.0,82,0.00,,,0.00,0.0,meteohub,2017-12-13 09:17:00,
2017-12-13 01:22:00,18.1,13.6,30.51,SW,225,0.0,3.0,82,0.00,,,0.00,0.0,meteohub,2017-12-13 09:22:00,
2017-12-13 01:27:00,18.7,14.4,30.51,SW,224,0.0,3.0,83,0.00,,,0.00,0.0,meteohub,2017-12-13 09:27:00,
2017-12-13 01:32:00,18.9,14.5,30.52,SW,224,0.0,2.0,83,0.00,,,0.00,0.0,meteohub,2017-12-13 09:32:00,
2017-12-13 01:37:00,18.9,14.5,30.52,SW,225,0.0,1.0,83,0.00,,,0.00,0.0,meteohub,2017-12-13 09:37:00,
2017-12-13 01:42:00,18.7,14.4,30.52,SW,224,0.0,1.0,83,0.00,,,0.00,0.0,meteohub,2017-12-13 09:42:00,
2017-12-13 01:47:00,18.3,14.0,30.52,SW,224,0.0,0.0,83,0.00,,,0.00,0.0,meteohub,2017-12-13 09:47:00,
2017-12-13 01:52:00,18.0,13.6,30.52,SW,224,0.0,0.0,83,0.00,,,0.00,0.0,meteohub,2017-12-13 09:52:00,
2017-12-13 01:57:00,17.6,13.6,30.52,SW,225,0.0,0.0,84,0.00,,,0.00,0.0,meteohub,2017-12-13 09:57:00,
2017-12-13 02:02:00,17.8,13.8,30.53,SW,224,0.0,0.0,84,0.00,,,0.00,0.0,meteohub,2017-12-13 10:02:00,
2017-12-13 02:07:00,18.0,14.0,30.53,SW,224,0.0,0.0,84,0.00,,,0.00,0.0,meteohub,2017-12-13 10:07:00,
2017-12-13 02:12:00,17.8,13.8,30.53,SW,224,0.0,0.0,84,0.00,,,0.00,0.0,meteohub,2017-12-13 10:12:00,
2017-12-13 02:17:00,17.2,12.9,30.53,SW,225,0.0,0.0,83,0.00,,,0.00,0.0,meteohub,2017-12-13 10:17:00,
2017-12-13 02:22:00,17.1,13.1,30.53,SW,224,0.0,0.0,84,0.00,,,0.00,0.0,meteohub,2017-12-13 10:22:00,
2017-12-13 02:27:00,17.2,13.3,30.52,SW,224,0.0,2.0,84,0.00,,,0.00,0.0,meteohub,2017-12-13 10:27:00,
2017-12-13 02:33:00,17.2,13.5,30.52,SW,224,0.0,2.0,85,0.00,,,0.00,0.0,meteohub,2017-12-13 10:33:00,
2017-12-13 02:38:00,17.8,14.0,30.52,SW,224,0.0,2.0,85,0.00,,,0.00,0.0,meteohub,2017-12-13 10:38:00,
2017-12-13 02:43:00,17.8,13.8,30.52,SW,224,0.0,0.0,84,0.00,,,0.00,0.0,meteohub,2017-12-13 10:43:00,
2017-12-13 02:48:00,17.8,13.8,30.52,SW,224,0.0,0.0,84,0.00,,,0.00,0.0,meteohub,2017-12-13 10:48:00,
2017-12-13 02:53:00,18.0,14.0,30.52,SW,224,0.0,0.0,84,0.00,,,0.00,0.0,meteohub,2017-12-13 10:53:00,
2017-12-13 02:59:00,18.0,14.0,30.52,SW,224,0.0,0.0,84,0.00,,,0.00,0.0,meteohub,2017-12-13 10:59:00,
2017-12-13 03:04:00,17.8,13.8,30.51,SW,224,0.0,0.0,84,0.00,,,0.00,0.0,meteohub,2017-12-13 11:04:00,
2017-12-13 03:09:00,18.0,14.0,30.51,SW,225,0.0,0.0,84,0.00,,,0.00,0.0,meteohub,2017-12-13 11:09:00,
2017-12-13 03:14:00,17.8,13.5,30.51,SW,224,0.0,0.0,83,0.00,,,0.00,0.0,meteohub,2017-12-13 11:14:00,
2017-12-13 03:19:00,18.1,14.2,30.51,SW,224,0.0,0.0,84,0.00,,,0.00,0.0,meteohub,2017-12-13 11:19:00,
2017-12-13 03:24:00,18.1,13.8,30.51,SW,224,0.0,0.0,83,0.00,,,0.00,0.0,meteohub,2017-12-13 11:24:00,
2017-12-13 03:29:00,17.4,12.9,30.51,SW,224,0.0,0.0,82,0.00,,,0.00,0.0,meteohub,2017-12-13 11:29:00,
2017-12-13 03:35:00,17.2,12.9,30.51,SW,224,0.0,0.0,83,0.00,,,0.00,0.0,meteohub,2017-12-13 11:35:00,
2017-12-13 03:40:00,17.1,13.1,30.51,SW,225,0.0,0.0,84,0.00,,,0.00,0.0,meteohub,2017-12-13 11:40:00,
2017-12-13 03:45:00,16.7,12.4,30.51,SW,225,0.0,0.0,83,0.00,,,0.00,0.0,meteohub,2017-12-13 11:45:00,
2017-12-13 03:50:00,16.2,11.8,30.51,SW,225,0.0,0.0,83,0.00,,,0.00,0.0,meteohub,2017-12-13 11:50:00,
2017-12-13 03:55:00,16.0,12.0,30.51,SW,224,0.0,0.0,84,0.00,,,0.00,0.0,meteohub,2017-12-13 11:55:00,
2017-12-13 04:01:00,16.7,12.9,30.51,SW,225,0.0,0.0,85,0.00,,,0.00,0.0,meteohub,2017-12-13 12:01:00,
2017-12-13 04:06:00,16.9,12.9,30.51,SW,224,0.0,0.0,84,0.00,,,0.00,0.0,meteohub,2017-12-13 12:06:00,
2017-12-13 04:11:00,16.3,12.4,30.50,SW,224,0.0,0.0,84,0.00,,,0.00,0.0,meteohub,2017-12-13 12:11:00,
2017-12-13 04:16:00,16.2,12.2,30.50,SW,224,0.0,0.0,84,0.00,,,0.00,0.0,meteohub,2017-12-13 12:16:00,
2017-12-13 04:21:00,16.2,12.2,30.50,SW,224,0.0,0.0,84,0.00,,,0.00,0.0,meteohub,2017-12-13 12:21:00,
2017-12-13 04:22:00,16.2,12.4,30.50,SW,225,0.0,0.0,85,0.00,,,0.00,0.0,meteohub,2017-12-13 12:22:00,
2017-12-13 04:27:00,15.8,11.8,30.51,SW,224,0.0,0.0,84,0.00,,,0.00,0.0,meteohub,2017-12-13 12:27:00,
2017-12-13 04:32:00,15.6,11.8,30.50,SW,224,0.0,0.0,85,0.00,,,0.00,0.0,meteohub,2017-12-13 12:32:00,
2017-12-13 04:37:00,15.1,11.5,30.50,SW,225,0.0,0.0,85,0.00,,,0.00,0.0,meteohub,2017-12-13 12:37:00,
2017-12-13 04:42:00,15.1,11.7,30.50,SW,224,0.0,0.0,86,0.00,,,0.00,0.0,meteohub,2017-12-13 12:42:00,
2017-12-13 04:48:00,15.3,11.8,30.50,SW,224,0.0,0.0,86,0.00,,,0.00,0.0,meteohub,2017-12-13 12:48:00,
2017-12-13 04:53:00,15.8,12.6,30.50,SW,224,0.0,0.0,87,0.00,,,0.00,0.0,meteohub,2017-12-13 12:53:00,
2017-12-13 05:03:00,16.3,13.1,30.50,SW,224,0.0,0.0,87,0.00,,,0.00,0.0,meteohub,2017-12-13 13:03:00,
2017-12-13 05:08:00,16.0,12.6,30.49,SW,224,0.0,0.0,86,0.00,,,0.00,0.0,meteohub,2017-12-13 13:08:00,
2017-12-13 05:14:00,15.6,12.2,30.49,SW,225,0.0,0.0,86,0.00,,,0.00,0.0,meteohub,2017-12-13 13:14:00,
2017-12-13 05:19:00,14.9,11.3,30.48,SW,224,0.0,0.0,85,0.00,,,0.00,0.0,meteohub,2017-12-13 13:19:00,
2017-12-13 05:24:00,15.1,11.7,30.48,SW,224,0.0,0.0,86,0.00,,,0.00,0.0,meteohub,2017-12-13 13:24:00,
2017-12-13 05:29:00,15.4,12.2,30.48,SW,224,0.0,0.0,87,0.00,,,0.00,0.0,meteohub,2017-12-13 13:29:00,
2017-12-13 05:34:00,16.2,12.9,30.48,SW,224,0.0,0.0,87,0.00,,,0.00,0.0,meteohub,2017-12-13 13:34:00,
2017-12-13 05:40:00,16.0,12.6,30.48,SW,224,0.0,0.0,86,0.00,,,0.00,0.0,meteohub,2017-12-13 13:40:00,
2017-12-13 05:45:00,16.2,12.7,30.48,SW,224,0.0,0.0,86,0.00,,,0.00,0.0,meteohub,2017-12-13 13:45:00,
2017-12-13 05:50:00,16.5,12.7,30.49,SW,224,0.0,0.0,85,0.00,,,0.00,0.0,meteohub,2017-12-13 13:50:00,
2017-12-13 05:55:00,16.2,12.4,30.50,SW,224,0.0,0.0,85,0.00,,,0.00,0.0,meteohub,2017-12-13 13:55:00,
2017-12-13 06:00:00,17.2,13.8,30.50,SW,225,0.0,0.0,86,0.00,,,0.00,0.0,meteohub,2017-12-13 14:00:00,
2017-12-13 06:06:00,17.2,13.5,30.50,SW,224,0.0,0.0,85,0.00,,,0.00,0.0,meteohub,2017-12-13 14:06:00,
2017-12-13 06:11:00,16.7,12.9,30.50,SW,225,0.0,0.0,85,0.00,,,0.00,0.0,meteohub,2017-12-13 14:11:00,
2017-12-13 06:16:00,16.3,12.6,30.51,SW,224,0.0,0.0,85,0.00,,,0.00,0.0,meteohub,2017-12-13 14:16:00,
2017-12-13 06:21:00,15.6,11.8,30.51,SW,225,0.0,0.0,85,0.00,,,0.00,0.0,meteohub,2017-12-13 14:21:00,
2017-12-13 06:26:00,14.7,11.1,30.51,SW,225,0.0,0.0,85,0.00,,,0.00,0.0,meteohub,2017-12-13 14:26:00,
2017-12-13 06:32:00,14.4,10.8,30.50,SW,224,0.0,0.0,85,0.00,,,0.00,0.0,meteohub,2017-12-13 14:32:00,
2017-12-13 06:37:00,14.4,10.9,30.50,SW,224,0.0,0.0,86,0.00,,,0.00,0.0,meteohub,2017-12-13 14:37:00,
2017-12-13 06:42:00,14.5,11.1,30.50,SW,224,0.0,0.0,86,0.00,,,0.00,0.0,meteohub,2017-12-13 14:42:00,
2017-12-13 06:47:00,14.5,11.1,30.51,SW,224,0.0,0.0,86,0.00,,,0.00,0.0,meteohub,2017-12-13 14:47:00,
2017-12-13 06:52:00,14.7,11.3,30.50,SW,224,0.0,0.0,86,0.00,,,0.00,0.0,meteohub,2017-12-13 14:52:00,
2017-12-13 06:57:00,14.9,11.5,30.49,SW,224,0.0,0.0,86,0.00,,,0.00,0.0,meteohub,2017-12-13 14:57:00,
2017-12-13 07:02:00,15.8,12.6,30.49,SW,224,0.0,0.0,87,0.00,,,0.00,0.0,meteohub,2017-12-13 15:02:00,
2017-12-13 07:07:00,16.3,13.1,30.49,SW,224,0.0,0.0,87,0.00,,,0.00,0.0,meteohub,2017-12-13 15:07:00,
2017-12-13 07:12:00,16.3,12.6,30.49,SW,224,0.0,0.0,85,0.00,,,0.00,5.0,meteohub,2017-12-13 15:12:00,
2017-12-13 07:17:00,16.3,12.6,30.49,SW,224,0.0,0.0,85,0.00,,,0.00,7.0,meteohub,2017-12-13 15:17:00,
2017-12-13 07:22:00,16.2,12.2,30.49,SW,225,0.0,0.0,84,0.00,,,0.00,9.0,meteohub,2017-12-13 15:22:00,
2017-12-13 07:27:00,16.2,12.2,30.48,SW,224,0.0,0.0,84,0.00,,,0.00,12.0,meteohub,2017-12-13 15:27:00,
2017-12-13 07:32:00,16.2,12.2,30.48,SW,224,0.0,0.0,84,0.00,,,0.00,12.0,meteohub,2017-12-13 15:32:00,
2017-12-13 07:37:00,16.7,12.7,30.49,SW,225,0.0,0.0,84,0.00,,,0.00,16.0,meteohub,2017-12-13 15:37:00,
2017-12-13 07:42:00,16.9,13.1,30.49,SW,225,0.0,0.0,85,0.00,,,0.00,18.0,meteohub,2017-12-13 15:42:00,
2017-12-13 07:47:00,17.4,13.6,30.49,SW,225,0.0,0.0,85,0.00,,,0.00,19.0,meteohub,2017-12-13 15:47:00,
2017-12-13 07:52:00,17.4,13.5,30.50,SW,225,0.0,0.0,84,0.00,,,0.00,21.0,meteohub,2017-12-13 15:52:00,
2017-12-13 07:57:00,18.3,14.9,30.51,SW,224,0.0,0.0,86,0.00,,,0.00,21.0,meteohub,2017-12-13 15:57:00,
2017-12-13 08:02:00,19.9,16.2,30.51,SW,224,0.0,0.0,85,0.00,,,0.00,23.0,meteohub,2017-12-13 16:02:00,
2017-12-13 08:07:00,20.7,16.3,30.51,SW,224,0.0,0.0,83,0.00,,,0.00,23.0,meteohub,2017-12-13 16:07:00,
2017-12-13 08:12:00,21.0,16.3,30.51,SW,225,0.0,0.0,82,0.00,,,0.00,25.0,meteohub,2017-12-13 16:12:00,
2017-12-13 08:17:00,21.4,16.5,30.51,SW,225,0.0,0.0,81,0.00,,,0.00,25.0,meteohub,2017-12-13 16:17:00,
2017-12-13 08:22:00,21.7,16.5,30.51,SW,225,0.0,0.0,80,0.00,,,0.00,26.0,meteohub,2017-12-13 16:22:00,
2017-12-13 08:27:00,22.1,17.2,30.51,SW,225,0.0,0.0,81,0.00,,,0.00,30.0,meteohub,2017-12-13 16:27:00,
2017-12-13 08:32:00,23.2,18.1,30.51,SW,225,0.0,0.0,81,0.00,,,0.00,84.0,meteohub,2017-12-13 16:32:00,
2017-12-13 08:37:00,24.1,18.5,30.51,SW,224,0.0,0.0,79,0.00,,,0.00,35.0,meteohub,2017-12-13 16:37:00,
2017-12-13 08:42:00,25.0,18.9,30.51,SW,225,0.0,0.0,77,0.00,,,0.00,47.0,meteohub,2017-12-13 16:42:00,
2017-12-13 08:47:00,25.3,18.9,30.51,SW,225,0.0,0.0,76,0.00,,,0.00,171.0,meteohub,2017-12-13 16:47:00,
2017-12-13 08:58:00,26.1,18.9,30.52,SW,225,0.0,0.0,74,0.00,,,0.00,237.0,meteohub,2017-12-13 16:58:00,
2017-12-13 09:08:00,27.9,20.7,30.51,SW,225,0.0,0.0,74,0.00,,,0.00,257.0,meteohub,2017-12-13 17:08:00,
2017-12-13 09:13:00,28.6,20.3,30.51,SW,225,0.0,0.0,71,0.00,,,0.00,306.0,meteohub,2017-12-13 17:13:00,
2017-12-13 09:19:00,28.9,20.1,30.51,SW,225,0.0,0.0,69,0.00,,,0.00,355.0,meteohub,2017-12-13 17:19:00,
2017-12-13 09:24:00,28.8,19.9,30.50,SW,225,0.0,0.0,69,0.00,,,0.00,359.0,meteohub,2017-12-13 17:24:00,
2017-12-13 09:29:00,28.9,20.5,30.50,SW,225,0.0,0.0,70,0.00,,,0.00,362.0,meteohub,2017-12-13 17:29:00,
2017-12-13 09:34:00,29.1,20.5,30.49,SW,225,0.0,0.0,70,0.00,,,0.00,364.0,meteohub,2017-12-13 17:34:00,
2017-12-13 09:39:00,29.8,21.2,30.49,SW,225,0.0,0.0,70,0.00,,,0.00,373.0,meteohub,2017-12-13 17:39:00,
2017-12-13 09:44:00,29.8,20.8,30.50,SW,225,0.0,0.0,69,0.00,,,0.00,403.0,meteohub,2017-12-13 17:44:00,
2017-12-13 09:50:00,29.7,20.5,30.49,SW,225,0.0,0.0,68,0.00,,,0.00,418.0,meteohub,2017-12-13 17:50:00,
2017-12-13 09:55:00,29.8,20.8,30.49,SW,225,0.0,0.0,69,0.00,,,0.00,297.0,meteohub,2017-12-13 17:55:00,
2017-12-13 10:00:00,30.2,21.6,30.49,SW,225,0.0,0.0,70,0.00,,,0.00,403.0,meteohub,2017-12-13 18:00:00,
2017-12-13 10:05:00,29.8,21.2,30.49,SW,224,0.0,0.0,70,0.00,,,0.00,186.0,meteohub,2017-12-13 18:05:00,
2017-12-13 10:10:00,29.5,20.7,30.49,SW,224,0.0,0.0,69,0.00,,,0.00,113.0,meteohub,2017-12-13 18:10:00,
2017-12-13 10:12:00,29.3,20.7,30.50,SW,225,0.0,0.0,70,0.00,,,0.00,100.0,meteohub,2017-12-13 18:12:00,
2017-12-13 10:17:00,28.9,20.7,30.50,SW,225,0.0,0.0,71,0.00,,,0.00,153.0,meteohub,2017-12-13 18:17:00,
2017-12-13 10:22:00,28.2,20.3,30.50,SW,225,0.0,0.0,72,0.00,,,0.00,329.0,meteohub,2017-12-13 18:22:00,
2017-12-13 10:27:00,28.8,21.2,30.51,SW,225,0.0,0.0,73,0.00,,,0.00,316.0,meteohub,2017-12-13 18:27:00,
2017-12-13 10:32:00,29.5,21.6,30.51,SW,224,0.0,0.0,72,0.00,,,0.00,469.0,meteohub,2017-12-13 18:32:00,
2017-12-13 10:37:00,29.7,20.7,30.50,SW,225,0.0,0.0,69,0.00,,,0.00,473.0,meteohub,2017-12-13 18:37:00,
2017-12-13 10:42:00,30.0,21.4,30.50,SW,225,0.0,0.0,70,0.00,,,0.00,476.0,meteohub,2017-12-13 18:42:00,
2017-12-13 10:47:00,31.1,21.0,30.50,SW,225,0.0,0.0,66,0.00,,,0.00,482.0,meteohub,2017-12-13 18:47:00,
2017-12-13 10:52:00,31.5,21.0,30.49,SW,225,0.0,0.0,65,0.00,,,0.00,489.0,meteohub,2017-12-13 18:52:00,
2017-12-13 10:57:00,32.2,20.7,30.49,SW,225,0.0,0.0,62,0.00,,,0.00,494.0,meteohub,2017-12-13 18:57:00,
2017-12-13 11:02:00,32.5,21.0,30.49,SW,225,0.0,1.0,62,0.00,,,0.00,497.0,meteohub,2017-12-13 19:02:00,
2017-12-13 11:07:00,32.5,21.0,30.49,SW,225,0.0,1.0,62,0.00,,,0.00,501.0,meteohub,2017-12-13 19:07:00,
2017-12-13 11:13:00,32.7,21.2,30.48,SW,225,0.0,1.0,62,0.00,,,0.00,504.0,meteohub,2017-12-13 19:13:00,
2017-12-13 11:18:00,32.9,21.4,30.48,SW,225,0.0,2.0,62,0.00,,,0.00,506.0,meteohub,2017-12-13 19:18:00,
2017-12-13 11:23:00,33.3,20.8,30.48,SW,225,0.0,2.0,60,0.00,,,0.00,512.0,meteohub,2017-12-13 19:23:00,
2017-12-13 11:28:00,34.0,21.2,30.48,SW,225,0.0,2.0,59,0.00,,,0.00,515.0,meteohub,2017-12-13 19:28:00,
2017-12-13 11:33:00,34.2,21.4,30.48,SW,224,0.0,1.0,59,0.00,,,0.00,517.0,meteohub,2017-12-13 19:33:00,
2017-12-13 11:38:00,34.9,21.9,30.47,SW,225,0.0,1.0,59,0.00,,,0.00,517.0,meteohub,2017-12-13 19:38:00,
2017-12-13 11:42:00,35.6,21.9,30.47,SW,225,0.0,1.0,57,0.00,,,0.00,520.0,meteohub,2017-12-13 19:42:00,
2017-12-13 11:47:00,36.9,22.3,30.46,SW,225,0.0,1.0,55,0.00,,,0.00,519.0,meteohub,2017-12-13 19:47:00,
2017-12-13 11:52:00,37.0,21.9,30.46,SW,225,0.0,0.0,54,0.00,,,0.00,519.0,meteohub,2017-12-13 19:52:00,
2017-12-13 11:57:00,37.2,21.7,30.45,SW,225,0.0,0.0,53,0.00,,,0.00,526.0,meteohub,2017-12-13 19:57:00,
2017-12-13 12:02:00,37.4,21.4,30.45,SW,225,0.0,1.0,52,0.00,,,0.00,524.0,meteohub,2017-12-13 20:02:00,
2017-12-13 12:08:00,38.7,22.1,30.44,SW,225,0.0,1.0,51,0.00,,,0.00,524.0,meteohub,2017-12-13 20:08:00,
2017-12-13 12:13:00,38.5,21.4,30.44,SW,224,0.0,1.0,50,0.00,,,0.00,524.0,meteohub,2017-12-13 20:13:00,
2017-12-13 12:18:00,38.8,21.7,30.44,SW,225,1.0,2.0,50,0.00,,,0.00,519.0,meteohub,2017-12-13 20:18:00,
2017-12-13 12:23:00,38.8,20.8,30.43,SW,224,0.0,2.0,48,0.00,,,0.00,517.0,meteohub,2017-12-13 20:23:00,
2017-12-13 12:28:00,39.0,21.0,30.43,SW,225,0.0,2.0,48,0.00,,,0.00,515.0,meteohub,2017-12-13 20:28:00,
2017-12-13 12:34:00,39.2,20.7,30.42,SW,225,0.0,1.0,47,0.00,,,0.00,513.0,meteohub,2017-12-13 20:34:00,
2017-12-13 12:39:00,38.8,20.3,30.42,SW,224,0.0,1.0,47,0.00,,,0.00,512.0,meteohub,2017-12-13 20:39:00,
2017-12-13 12:44:00,39.7,21.2,30.42,SW,225,0.0,2.0,47,0.00,,,0.00,510.0,meteohub,2017-12-13 20:44:00,
2017-12-13 12:49:00,40.1,21.6,30.42,SW,224,0.0,2.0,47,0.00,,,0.00,508.0,meteohub,2017-12-13 20:49:00,
2017-12-13 12:54:00,40.5,20.8,30.41,SW,225,1.0,1.0,45,0.00,,,0.00,508.0,meteohub,2017-12-13 20:54:00,
2017-12-13 13:05:00,40.6,21.0,30.40,SW,225,0.0,1.0,45,0.00,,,0.00,478.0,meteohub,2017-12-13 21:05:00,
2017-12-13 13:10:00,41.2,20.8,30.40,SW,225,0.0,2.0,44,0.00,,,0.00,473.0,meteohub,2017-12-13 21:10:00,
2017-12-13 13:15:00,41.5,21.2,30.39,SW,225,0.0,2.0,44,0.00,,,0.00,476.0,meteohub,2017-12-13 21:15:00,
2017-12-13 13:20:00,43.0,21.4,30.39,SW,224,0.0,1.0,42,0.00,,,0.00,473.0,meteohub,2017-12-13 21:20:00,
2017-12-13 13:25:00,42.8,20.7,30.38,SW,225,0.0,1.0,41,0.00,,,0.00,471.0,meteohub,2017-12-13 21:25:00,
2017-12-13 13:31:00,43.2,21.6,30.37,SW,225,0.0,1.0,42,0.00,,,0.00,471.0,meteohub,2017-12-13 21:31:00,
2017-12-13 13:36:00,43.3,22.3,30.38,SW,225,3.0,3.0,43,0.00,,,0.00,473.0,meteohub,2017-12-13 21:36:00,
2017-12-13 13:41:00,43.3,21.2,30.38,SW,225,0.0,5.0,41,0.00,,,0.00,434.0,meteohub,2017-12-13 21:41:00,
2017-12-13 13:46:00,43.3,21.7,30.37,SW,225,0.0,5.0,42,0.00,,,0.00,387.0,meteohub,2017-12-13 21:46:00,
2017-12-13 13:51:00,44.1,21.9,30.37,SW,225,0.0,5.0,41,0.00,,,0.00,459.0,meteohub,2017-12-13 21:51:00,
2017-12-13 13:56:00,43.7,21.6,30.37,SW,225,1.0,4.0,41,0.00,,,0.00,432.0,meteohub,2017-12-13 21:56:00,
2017-12-13 14:02:00,43.5,21.9,30.37,SW,225,0.0,3.0,42,0.00,,,0.00,352.0,meteohub,2017-12-13 22:02:00,
2017-12-13 14:07:00,43.3,21.2,30.37,SW,224,1.0,3.0,41,0.00,,,0.00,332.0,meteohub,2017-12-13 22:07:00,
2017-12-13 14:12:00,43.3,21.2,30.37,SW,225,0.0,2.0,41,0.00,,,0.00,336.0,meteohub,2017-12-13 22:12:00,
2017-12-13 14:17:00,43.5,21.4,30.37,SW,225,0.0,2.0,41,0.00,,,0.00,371.0,meteohub,2017-12-13 22:17:00,
2017-12-13 14:22:00,43.2,21.0,30.37,SW,225,0.0,2.0,41,0.00,,,0.00,355.0,meteohub,2017-12-13 22:22:00,
2017-12-13 14:27:00,43.5,21.9,30.37,SW,225,0.0,2.0,42,0.00,,,0.00,301.0,meteohub,2017-12-13 22:27:00,
2017-12-13 14:32:00,43.7,21.6,30.36,SW,225,0.0,2.0,41,0.00,,,0.00,257.0,meteohub,2017-12-13 22:32:00,
2017-12-13 14:37:00,43.7,21.6,30.36,SW,225,0.0,1.0,41,0.00,,,0.00,246.0,meteohub,2017-12-13 22:37:00,
2017-12-13 14:42:00,43.5,21.9,30.36,SW,225,0.0,1.0,42,0.00,,,0.00,264.0,meteohub,2017-12-13 22:42:00,
2017-12-13 14:47:00,43.5,21.9,30.37,SW,225,0.0,2.0,42,0.00,,,0.00,237.0,meteohub,2017-12-13 22:47:00,
2017-12-13 14:52:00,43.3,21.7,30.36,SW,224,0.0,2.0,42,0.00,,,0.00,206.0,meteohub,2017-12-13 22:52:00,
2017-12-13 14:57:00,43.3,21.7,30.36,SW,225,2.0,2.0,42,0.00,,,0.00,209.0,meteohub,2017-12-13 22:57:00,
2017-12-13 15:02:00,43.3,22.3,30.36,SW,225,1.0,2.0,43,0.00,,,0.00,167.0,meteohub,2017-12-13 23:02:00,
2017-12-13 15:07:00,43.0,21.4,30.36,SW,224,0.0,2.0,42,0.00,,,0.00,169.0,meteohub,2017-12-13 23:07:00,
2017-12-13 15:12:00,42.8,21.4,30.36,SW,225,0.0,2.0,42,0.00,,,0.00,149.0,meteohub,2017-12-13 23:12:00,
2017-12-13 15:17:00,42.6,21.2,30.36,SW,225,0.0,1.0,42,0.00,,,0.00,139.0,meteohub,2017-12-13 23:17:00,
2017-12-13 15:22:00,42.8,21.4,30.36,SW,225,0.0,0.0,42,0.00,,,0.00,139.0,meteohub,2017-12-13 23:22:00,